4XCWM LLIB-LLIB

Flight info

Callsign 4XCWM
Flight time 0h 2m
Altitude 1200
Route CIRCUITS
Aircraft C182/L-VD/A

Departure

Time 2026-04-30 20:01
Airport Rosh Pina Airport (LLIB)

Arrival

Time 2026-04-30 20:03
Airport Rosh Pina Airport (LLIB)
Time Latitude Longitude Altitude Speed Heading
2026-04-30 19:53 32.97751 35.57291 950 ft 0 kts 113°
2026-04-30 19:56 32.97757 35.57273 950 ft 4 kts 360°
2026-04-30 19:57 32.97786 35.57293 953 ft 4 kts 53°
2026-04-30 19:57 32.97793 35.57302 954 ft 6 kts 55°
2026-04-30 19:57 32.97799 35.57312 954 ft 0 kts 68°
2026-04-30 19:58 32.97800 35.57314 955 ft 2 kts 64°
2026-04-30 19:58 32.97833 35.57349 957 ft 8 kts
2026-04-30 19:59 32.97863 35.57345 958 ft 0 kts 328°
2026-04-30 20:00 32.97930 35.57298 958 ft 34 kts 335°
2026-04-30 20:00 32.98287 35.57064 994 ft 77 kts 325°
2026-04-30 20:00 32.98815 35.56699 1111 ft 98 kts 324°
2026-04-30 20:00 32.99437 35.56245 1281 ft 107 kts 326°
2026-04-30 20:01 33.00750 35.56655 1546 ft 127 kts 74°
2026-04-30 20:01 33.00763 35.57716 1659 ft 132 kts 107°
2026-04-30 20:01 33.00123 35.58362 1696 ft 130 kts 186°
2026-04-30 20:02 32.98341 35.57876 1647 ft 132 kts 205°
2026-04-30 20:02 32.97499 35.57593 1679 ft 110 kts 174°
2026-04-30 20:03 32.97799 35.58083 1319 ft 81 kts 290°
2026-04-30 20:03 32.97821 35.57427 1046 ft 83 kts 289°
2026-04-30 20:03 32.98237 35.57086 956 ft 46 kts 331°
2026-04-30 20:03 32.98328 35.57024 954 ft 1 kts 271°
2026-04-30 20:04 32.98293 35.57043 954 ft 17 kts 160°
2026-04-30 20:04 32.98173 35.57123 958 ft 23 kts 146°
2026-04-30 20:04 32.98057 35.57151 957 ft 17 kts 219°
2026-04-30 20:05 32.97890 35.57243 955 ft 17 kts 146°
2026-04-30 20:05 32.97780 35.57282 952 ft 17 kts 191°
2026-04-30 20:05 32.97750 35.57288 950 ft 0 kts 102°